sensor_id;sensor_type;location;lat;lon;timestamp;P1;durP1;ratioP1;P2;durP2;ratioP2
7359;SDS011;3720;48.274;7.796;2022-09-28T00:00:06;6.97;;;2.20;;
7359;SDS011;3720;48.274;7.796;2022-09-28T00:02:39;9.95;;;2.20;;
7359;SDS011;3720;48.274;7.796;2022-09-28T00:05:10;7.38;;;2.00;;
7359;SDS011;3720;48.274;7.796;2022-09-28T00:07:42;10.07;;;2.05;;
7359;SDS011;3720;48.274;7.796;2022-09-28T00:10:14;10.27;;;2.13;;
7359;SDS011;3720;48.274;7.796;2022-09-28T00:12:47;6.78;;;1.88;;
7359;SDS011;3720;48.274;7.796;2022-09-28T00:15:19;6.22;;;1.77;;
7359;SDS011;3720;48.274;7.796;2022-09-28T00:17:53;11.02;;;2.03;;
7359;SDS011;3720;48.274;7.796;2022-09-28T00:20:25;8.02;;;1.92;;
7359;SDS011;3720;48.274;7.796;2022-09-28T00:22:57;9.98;;;1.85;;
7359;SDS011;3720;48.274;7.796;2022-09-28T00:25:29;6.95;;;1.80;;
7359;SDS011;3720;48.274;7.796;2022-09-28T00:28:02;9.55;;;2.03;;
7359;SDS011;3720;48.274;7.796;2022-09-28T00:30:35;12.23;;;2.40;;
7359;SDS011;3720;48.274;7.796;2022-09-28T00:33:07;8.43;;;1.90;;
7359;SDS011;3720;48.274;7.796;2022-09-28T00:35:39;6.30;;;2.00;;
7359;SDS011;3720;48.274;7.796;2022-09-28T00:38:12;5.65;;;1.60;;
7359;SDS011;3720;48.274;7.796;2022-09-28T00:40:45;9.52;;;1.95;;
7359;SDS011;3720;48.274;7.796;2022-09-28T00:43:19;8.80;;;1.77;;
7359;SDS011;3720;48.274;7.796;2022-09-28T00:45:53;8.95;;;1.98;;
7359;SDS011;3720;48.274;7.796;2022-09-28T00:48:30;6.43;;;1.63;;
7359;SDS011;3720;48.274;7.796;2022-09-28T00:51:06;7.68;;;1.90;;
7359;SDS011;3720;48.274;7.796;2022-09-28T00:53:41;10.00;;;1.95;;
7359;SDS011;3720;48.274;7.796;2022-09-28T00:56:15;5.43;;;1.70;;
7359;SDS011;3720;48.274;7.796;2022-09-28T00:58:51;11.93;;;1.80;;
7359;SDS011;3720;48.274;7.796;2022-09-28T01:01:24;8.63;;;2.00;;
7359;SDS011;3720;48.274;7.796;2022-09-28T01:03:57;7.18;;;1.83;;
7359;SDS011;3720;48.274;7.796;2022-09-28T01:06:32;5.18;;;1.65;;
7359;SDS011;3720;48.274;7.796;2022-09-28T01:09:06;8.82;;;1.95;;
7359;SDS011;3720;48.274;7.796;2022-09-28T01:11:40;10.18;;;2.03;;
7359;SDS011;3720;48.274;7.796;2022-09-28T01:14:15;14.80;;;2.10;;
7359;SDS011;3720;48.274;7.796;2022-09-28T01:16:49;8.50;;;1.85;;
7359;SDS011;3720;48.274;7.796;2022-09-28T01:19:32;6.78;;;1.60;;
7359;SDS011;3720;48.274;7.796;2022-09-28T01:22:23;7.47;;;1.80;;
7359;SDS011;3720;48.274;7.796;2022-09-28T01:25:07;5.88;;;1.55;;
7359;SDS011;3720;48.274;7.796;2022-09-28T01:27:44;8.60;;;2.08;;
7359;SDS011;3720;48.274;7.796;2022-09-28T01:30:20;8.07;;;1.70;;
7359;SDS011;3720;48.274;7.796;2022-09-28T01:32:54;7.13;;;2.13;;
7359;SDS011;3720;48.274;7.796;2022-09-28T01:35:30;7.97;;;1.85;;
7359;SDS011;3720;48.274;7.796;2022-09-28T01:38:06;8.60;;;1.70;;
7359;SDS011;3720;48.274;7.796;2022-09-28T01:40:42;6.70;;;1.42;;
7359;SDS011;3720;48.274;7.796;2022-09-28T01:43:18;5.07;;;1.20;;
7359;SDS011;3720;48.274;7.796;2022-09-28T01:45:53;5.15;;;1.30;;
7359;SDS011;3720;48.274;7.796;2022-09-28T01:48:29;7.05;;;1.48;;
7359;SDS011;3720;48.274;7.796;2022-09-28T01:51:09;6.90;;;1.20;;
7359;SDS011;3720;48.274;7.796;2022-09-28T01:53:47;3.88;;;1.35;;
7359;SDS011;3720;48.274;7.796;2022-09-28T01:56:23;9.00;;;1.50;;
7359;SDS011;3720;48.274;7.796;2022-09-28T01:59:01;5.83;;;1.27;;
7359;SDS011;3720;48.274;7.796;2022-09-28T02:01:38;5.50;;;1.52;;
7359;SDS011;3720;48.274;7.796;2022-09-28T02:04:15;6.68;;;1.60;;
7359;SDS011;3720;48.274;7.796;2022-09-28T02:06:51;7.67;;;1.50;;
7359;SDS011;3720;48.274;7.796;2022-09-28T02:09:27;5.35;;;1.20;;
7359;SDS011;3720;48.274;7.796;2022-09-28T02:12:08;4.85;;;1.05;;
7359;SDS011;3720;48.274;7.796;2022-09-28T02:14:45;4.90;;;1.40;;
7359;SDS011;3720;48.274;7.796;2022-09-28T02:17:20;6.40;;;1.30;;
7359;SDS011;3720;48.274;7.796;2022-09-28T02:19:52;6.25;;;1.20;;
7359;SDS011;3720;48.274;7.796;2022-09-28T02:22:26;5.10;;;1.60;;
7359;SDS011;3720;48.274;7.796;2022-09-28T02:25:04;3.83;;;1.30;;
7359;SDS011;3720;48.274;7.796;2022-09-28T02:30:15;5.35;;;1.10;;
7359;SDS011;3720;48.274;7.796;2022-09-28T02:32:48;6.03;;;1.40;;
7359;SDS011;3720;48.274;7.796;2022-09-28T02:35:24;5.57;;;1.40;;
7359;SDS011;3720;48.274;7.796;2022-09-28T02:37:56;4.95;;;1.38;;
7359;SDS011;3720;48.274;7.796;2022-09-28T02:40:29;3.65;;;1.30;;
7359;SDS011;3720;48.274;7.796;2022-09-28T02:43:08;3.95;;;1.30;;
7359;SDS011;3720;48.274;7.796;2022-09-28T02:45:58;4.68;;;1.40;;
7359;SDS011;3720;48.274;7.796;2022-09-28T02:48:51;3.90;;;1.40;;
7359;SDS011;3720;48.274;7.796;2022-09-28T02:51:33;6.47;;;1.58;;
7359;SDS011;3720;48.274;7.796;2022-09-28T02:54:24;6.03;;;1.70;;
7359;SDS011;3720;48.274;7.796;2022-09-28T02:57:18;5.28;;;1.55;;
7359;SDS011;3720;48.274;7.796;2022-09-28T03:00:03;4.50;;;1.30;;
7359;SDS011;3720;48.274;7.796;2022-09-28T03:02:41;5.53;;;1.50;;
7359;SDS011;3720;48.274;7.796;2022-09-28T03:05:20;7.97;;;1.67;;
7359;SDS011;3720;48.274;7.796;2022-09-28T03:07:57;6.53;;;1.50;;
7359;SDS011;3720;48.274;7.796;2022-09-28T03:10:32;4.70;;;1.33;;
7359;SDS011;3720;48.274;7.796;2022-09-28T03:13:10;5.13;;;1.17;;
7359;SDS011;3720;48.274;7.796;2022-09-28T03:15:45;4.28;;;1.30;;
7359;SDS011;3720;48.274;7.796;2022-09-28T03:18:18;3.88;;;1.30;;
7359;SDS011;3720;48.274;7.796;2022-09-28T03:20:50;5.00;;;1.27;;
7359;SDS011;3720;48.274;7.796;2022-09-28T03:23:22;4.80;;;1.30;;
7359;SDS011;3720;48.274;7.796;2022-09-28T03:25:54;3.25;;;1.05;;
7359;SDS011;3720;48.274;7.796;2022-09-28T03:28:26;4.10;;;1.25;;
7359;SDS011;3720;48.274;7.796;2022-09-28T03:30:58;4.70;;;1.20;;
7359;SDS011;3720;48.274;7.796;2022-09-28T03:33:31;2.42;;;0.98;;
7359;SDS011;3720;48.274;7.796;2022-09-28T03:36:03;2.22;;;0.90;;
7359;SDS011;3720;48.274;7.796;2022-09-28T03:38:37;3.40;;;1.00;;
7359;SDS011;3720;48.274;7.796;2022-09-28T03:41:09;4.65;;;1.00;;
7359;SDS011;3720;48.274;7.796;2022-09-28T03:43:41;6.28;;;1.00;;
7359;SDS011;3720;48.274;7.796;2022-09-28T03:46:13;3.03;;;1.00;;
7359;SDS011;3720;48.274;7.796;2022-09-28T03:48:46;2.42;;;1.05;;
7359;SDS011;3720;48.274;7.796;2022-09-28T03:51:18;3.78;;;0.80;;
7359;SDS011;3720;48.274;7.796;2022-09-28T03:53:50;2.80;;;0.73;;
7359;SDS011;3720;48.274;7.796;2022-09-28T03:56:22;3.90;;;0.90;;
7359;SDS011;3720;48.274;7.796;2022-09-28T03:58:54;3.65;;;0.80;;
7359;SDS011;3720;48.274;7.796;2022-09-28T04:01:26;1.45;;;0.63;;
7359;SDS011;3720;48.274;7.796;2022-09-28T04:03:59;2.72;;;0.80;;
7359;SDS011;3720;48.274;7.796;2022-09-28T04:06:32;2.80;;;0.90;;
7359;SDS011;3720;48.274;7.796;2022-09-28T04:09:03;2.60;;;0.70;;
7359;SDS011;3720;48.274;7.796;2022-09-28T04:11:36;2.22;;;0.80;;
7359;SDS011;3720;48.274;7.796;2022-09-28T04:14:08;2.97;;;0.80;;
7359;SDS011;3720;48.274;7.796;2022-09-28T04:16:40;4.43;;;0.73;;
7359;SDS011;3720;48.274;7.796;2022-09-28T04:19:13;2.03;;;0.85;;
7359;SDS011;3720;48.274;7.796;2022-09-28T04:21:45;3.20;;;1.00;;
7359;SDS011;3720;48.274;7.796;2022-09-28T04:24:17;5.22;;;1.08;;
7359;SDS011;3720;48.274;7.796;2022-09-28T04:26:50;2.83;;;0.98;;
7359;SDS011;3720;48.274;7.796;2022-09-28T04:29:42;3.63;;;0.70;;
7359;SDS011;3720;48.274;7.796;2022-09-28T04:32:13;4.97;;;0.95;;
7359;SDS011;3720;48.274;7.796;2022-09-28T04:34:46;3.55;;;0.88;;
7359;SDS011;3720;48.274;7.796;2022-09-28T04:37:18;2.20;;;0.90;;
7359;SDS011;3720;48.274;7.796;2022-09-28T04:39:50;2.45;;;1.00;;
7359;SDS011;3720;48.274;7.796;2022-09-28T04:42:22;2.78;;;1.10;;
7359;SDS011;3720;48.274;7.796;2022-09-28T04:44:54;3.20;;;1.20;;
7359;SDS011;3720;48.274;7.796;2022-09-28T04:47:28;5.05;;;1.30;;
7359;SDS011;3720;48.274;7.796;2022-09-28T04:50:01;3.90;;;1.17;;
7359;SDS011;3720;48.274;7.796;2022-09-28T04:52:34;3.08;;;1.13;;
7359;SDS011;3720;48.274;7.796;2022-09-28T04:55:07;4.10;;;1.38;;
7359;SDS011;3720;48.274;7.796;2022-09-28T04:57:42;3.65;;;1.50;;
7359;SDS011;3720;48.274;7.796;2022-09-28T05:00:14;5.40;;;1.50;;
7359;SDS011;3720;48.274;7.796;2022-09-28T05:02:46;3.22;;;1.60;;
7359;SDS011;3720;48.274;7.796;2022-09-28T05:05:19;4.75;;;1.50;;
7359;SDS011;3720;48.274;7.796;2022-09-28T05:07:51;3.67;;;1.13;;
7359;SDS011;3720;48.274;7.796;2022-09-28T05:10:27;6.55;;;1.17;;
7359;SDS011;3720;48.274;7.796;2022-09-28T05:12:59;3.97;;;1.13;;
7359;SDS011;3720;48.274;7.796;2022-09-28T05:15:32;2.88;;;0.77;;
7359;SDS011;3720;48.274;7.796;2022-09-28T05:18:05;2.35;;;0.90;;
7359;SDS011;3720;48.274;7.796;2022-09-28T05:20:40;3.25;;;0.90;;
7359;SDS011;3720;48.274;7.796;2022-09-28T05:23:12;3.00;;;1.20;;
7359;SDS011;3720;48.274;7.796;2022-09-28T05:25:45;1.73;;;0.82;;
7359;SDS011;3720;48.274;7.796;2022-09-28T05:28:18;3.42;;;1.10;;
7359;SDS011;3720;48.274;7.796;2022-09-28T05:30:56;3.05;;;1.10;;
7359;SDS011;3720;48.274;7.796;2022-09-28T05:33:29;4.55;;;0.98;;
7359;SDS011;3720;48.274;7.796;2022-09-28T05:36:03;2.70;;;0.90;;
7359;SDS011;3720;48.274;7.796;2022-09-28T05:38:38;2.03;;;1.10;;
7359;SDS011;3720;48.274;7.796;2022-09-28T05:41:10;2.97;;;1.00;;
7359;SDS011;3720;48.274;7.796;2022-09-28T05:43:42;2.10;;;1.00;;
7359;SDS011;3720;48.274;7.796;2022-09-28T05:46:15;3.88;;;1.08;;
7359;SDS011;3720;48.274;7.796;2022-09-28T05:48:49;2.35;;;0.88;;
7359;SDS011;3720;48.274;7.796;2022-09-28T05:51:23;2.95;;;0.90;;
7359;SDS011;3720;48.274;7.796;2022-09-28T05:53:55;2.75;;;0.80;;
7359;SDS011;3720;48.274;7.796;2022-09-28T05:56:28;2.00;;;0.70;;
7359;SDS011;3720;48.274;7.796;2022-09-28T05:59:00;1.73;;;0.90;;
7359;SDS011;3720;48.274;7.796;2022-09-28T06:01:34;3.60;;;1.00;;
7359;SDS011;3720;48.274;7.796;2022-09-28T06:04:06;2.85;;;0.80;;
7359;SDS011;3720;48.274;7.796;2022-09-28T06:06:39;1.77;;;0.90;;
7359;SDS011;3720;48.274;7.796;2022-09-28T06:09:11;3.10;;;0.80;;
7359;SDS011;3720;48.274;7.796;2022-09-28T06:11:43;1.63;;;0.80;;
7359;SDS011;3720;48.274;7.796;2022-09-28T06:14:15;2.67;;;0.93;;
7359;SDS011;3720;48.274;7.796;2022-09-28T06:16:47;1.67;;;0.80;;
7359;SDS011;3720;48.274;7.796;2022-09-28T06:19:19;4.35;;;1.10;;
7359;SDS011;3720;48.274;7.796;2022-09-28T06:21:52;2.22;;;0.90;;
7359;SDS011;3720;48.274;7.796;2022-09-28T06:24:24;2.20;;;0.80;;
7359;SDS011;3720;48.274;7.796;2022-09-28T06:26:56;2.10;;;0.93;;
7359;SDS011;3720;48.274;7.796;2022-09-28T06:29:28;1.77;;;0.90;;
7359;SDS011;3720;48.274;7.796;2022-09-28T06:32:00;1.10;;;0.70;;
7359;SDS011;3720;48.274;7.796;2022-09-28T06:34:32;1.90;;;0.70;;
7359;SDS011;3720;48.274;7.796;2022-09-28T06:37:06;2.63;;;0.80;;
7359;SDS011;3720;48.274;7.796;2022-09-28T06:39:38;1.50;;;0.60;;
7359;SDS011;3720;48.274;7.796;2022-09-28T06:42:10;2.05;;;0.80;;
7359;SDS011;3720;48.274;7.796;2022-09-28T06:44:42;5.28;;;0.90;;
7359;SDS011;3720;48.274;7.796;2022-09-28T06:47:16;0.88;;;0.57;;
7359;SDS011;3720;48.274;7.796;2022-09-28T06:49:48;1.45;;;0.65;;
7359;SDS011;3720;48.274;7.796;2022-09-28T06:52:21;1.98;;;0.60;;
7359;SDS011;3720;48.274;7.796;2022-09-28T06:54:53;0.95;;;0.68;;
7359;SDS011;3720;48.274;7.796;2022-09-28T06:57:25;2.08;;;0.90;;
7359;SDS011;3720;48.274;7.796;2022-09-28T06:59:57;1.50;;;0.70;;
7359;SDS011;3720;48.274;7.796;2022-09-28T07:02:29;4.68;;;1.00;;
7359;SDS011;3720;48.274;7.796;2022-09-28T07:05:01;1.95;;;1.00;;
7359;SDS011;3720;48.274;7.796;2022-09-28T07:07:34;2.22;;;0.80;;
7359;SDS011;3720;48.274;7.796;2022-09-28T07:10:07;2.55;;;0.93;;
7359;SDS011;3720;48.274;7.796;2022-09-28T07:12:40;2.22;;;0.90;;
7359;SDS011;3720;48.274;7.796;2022-09-28T07:15:12;2.67;;;1.10;;
7359;SDS011;3720;48.274;7.796;2022-09-28T07:17:44;2.28;;;1.15;;
7359;SDS011;3720;48.274;7.796;2022-09-28T07:20:15;3.92;;;1.40;;
7359;SDS011;3720;48.274;7.796;2022-09-28T07:22:52;3.05;;;1.17;;
7359;SDS011;3720;48.274;7.796;2022-09-28T07:25:25;7.97;;;1.35;;
7359;SDS011;3720;48.274;7.796;2022-09-28T07:27:59;2.75;;;1.23;;
7359;SDS011;3720;48.274;7.796;2022-09-28T07:30:32;3.15;;;1.20;;
7359;SDS011;3720;48.274;7.796;2022-09-28T07:33:06;2.58;;;1.05;;
7359;SDS011;3720;48.274;7.796;2022-09-28T07:35:48;3.33;;;1.00;;
7359;SDS011;3720;48.274;7.796;2022-09-28T07:38:23;2.10;;;0.93;;
7359;SDS011;3720;48.274;7.796;2022-09-28T07:40:55;3.55;;;1.10;;
7359;SDS011;3720;48.274;7.796;2022-09-28T07:43:43;2.83;;;0.88;;
7359;SDS011;3720;48.274;7.796;2022-09-28T07:46:15;2.78;;;0.93;;
7359;SDS011;3720;48.274;7.796;2022-09-28T07:48:47;1.52;;;0.77;;
7359;SDS011;3720;48.274;7.796;2022-09-28T07:51:20;3.28;;;1.02;;
7359;SDS011;3720;48.274;7.796;2022-09-28T07:53:53;1.45;;;0.80;;
7359;SDS011;3720;48.274;7.796;2022-09-28T07:56:25;3.40;;;1.20;;
7359;SDS011;3720;48.274;7.796;2022-09-28T07:58:57;3.13;;;0.90;;
7359;SDS011;3720;48.274;7.796;2022-09-28T08:01:29;2.42;;;0.90;;
7359;SDS011;3720;48.274;7.796;2022-09-28T08:04:01;5.65;;;1.10;;
7359;SDS011;3720;48.274;7.796;2022-09-28T08:06:33;2.50;;;1.38;;
7359;SDS011;3720;48.274;7.796;2022-09-28T08:09:06;2.75;;;1.25;;
7359;SDS011;3720;48.274;7.796;2022-09-28T08:11:38;3.40;;;1.00;;
7359;SDS011;3720;48.274;7.796;2022-09-28T08:14:12;3.17;;;1.10;;
7359;SDS011;3720;48.274;7.796;2022-09-28T08:16:45;4.60;;;1.30;;
7359;SDS011;3720;48.274;7.796;2022-09-28T08:19:17;3.70;;;1.10;;
7359;SDS011;3720;48.274;7.796;2022-09-28T08:21:48;1.55;;;0.90;;
7359;SDS011;3720;48.274;7.796;2022-09-28T08:24:21;3.30;;;0.90;;
7359;SDS011;3720;48.274;7.796;2022-09-28T08:26:53;4.88;;;1.13;;
7359;SDS011;3720;48.274;7.796;2022-09-28T08:29:27;4.00;;;1.10;;
7359;SDS011;3720;48.274;7.796;2022-09-28T08:32:00;1.80;;;0.90;;
7359;SDS011;3720;48.274;7.796;2022-09-28T08:34:33;4.80;;;1.60;;
7359;SDS011;3720;48.274;7.796;2022-09-28T08:37:05;2.92;;;1.35;;
7359;SDS011;3720;48.274;7.796;2022-09-28T08:39:40;2.05;;;1.27;;
7359;SDS011;3720;48.274;7.796;2022-09-28T08:42:14;4.65;;;1.50;;
7359;SDS011;3720;48.274;7.796;2022-09-28T08:45:04;3.72;;;1.40;;
7359;SDS011;3720;48.274;7.796;2022-09-28T08:47:48;6.28;;;2.90;;
7359;SDS011;3720;48.274;7.796;2022-09-28T08:50:44;5.53;;;1.63;;
7359;SDS011;3720;48.274;7.796;2022-09-28T08:53:24;3.05;;;1.40;;
7359;SDS011;3720;48.274;7.796;2022-09-28T08:56:06;7.10;;;1.50;;
7359;SDS011;3720;48.274;7.796;2022-09-28T08:58:43;2.67;;;1.20;;
7359;SDS011;3720;48.274;7.796;2022-09-28T09:01:20;4.55;;;1.40;;
7359;SDS011;3720;48.274;7.796;2022-09-28T09:03:56;4.75;;;1.50;;
7359;SDS011;3720;48.274;7.796;2022-09-28T09:06:30;4.97;;;1.45;;
7359;SDS011;3720;48.274;7.796;2022-09-28T09:09:14;3.53;;;1.27;;
7359;SDS011;3720;48.274;7.796;2022-09-28T09:11:57;6.18;;;1.50;;
7359;SDS011;3720;48.274;7.796;2022-09-28T09:14:43;3.80;;;1.30;;
7359;SDS011;3720;48.274;7.796;2022-09-28T09:17:36;3.33;;;1.30;;
7359;SDS011;3720;48.274;7.796;2022-09-28T09:20:16;5.00;;;1.45;;
7359;SDS011;3720;48.274;7.796;2022-09-28T09:22:53;3.55;;;1.40;;
7359;SDS011;3720;48.274;7.796;2022-09-28T09:25:31;5.00;;;1.30;;
7359;SDS011;3720;48.274;7.796;2022-09-28T09:28:19;3.65;;;1.50;;
7359;SDS011;3720;48.274;7.796;2022-09-28T09:31:12;3.90;;;1.42;;
7359;SDS011;3720;48.274;7.796;2022-09-28T09:34:00;5.10;;;1.50;;
7359;SDS011;3720;48.274;7.796;2022-09-28T09:36:56;4.03;;;1.58;;
7359;SDS011;3720;48.274;7.796;2022-09-28T09:39:40;9.02;;;1.55;;
7359;SDS011;3720;48.274;7.796;2022-09-28T09:42:29;5.60;;;1.60;;
7359;SDS011;3720;48.274;7.796;2022-09-28T09:45:17;4.15;;;1.45;;
7359;SDS011;3720;48.274;7.796;2022-09-28T09:48:12;5.45;;;1.45;;
7359;SDS011;3720;48.274;7.796;2022-09-28T09:50:48;5.65;;;1.70;;
7359;SDS011;3720;48.274;7.796;2022-09-28T09:53:25;5.38;;;1.70;;
7359;SDS011;3720;48.274;7.796;2022-09-28T09:56:05;3.95;;;1.30;;
7359;SDS011;3720;48.274;7.796;2022-09-28T09:58:43;3.45;;;1.50;;
7359;SDS011;3720;48.274;7.796;2022-09-28T10:01:22;4.55;;;1.77;;
7359;SDS011;3720;48.274;7.796;2022-09-28T10:04:06;3.28;;;1.30;;
7359;SDS011;3720;48.274;7.796;2022-09-28T10:06:44;4.25;;;1.30;;
7359;SDS011;3720;48.274;7.796;2022-09-28T10:09:19;3.20;;;1.27;;
7359;SDS011;3720;48.274;7.796;2022-09-28T10:11:55;4.68;;;1.70;;
7359;SDS011;3720;48.274;7.796;2022-09-28T10:14:27;4.88;;;1.60;;
7359;SDS011;3720;48.274;7.796;2022-09-28T10:17:01;6.15;;;1.70;;
7359;SDS011;3720;48.274;7.796;2022-09-28T10:19:34;4.85;;;1.58;;
7359;SDS011;3720;48.274;7.796;2022-09-28T10:22:09;6.40;;;1.58;;
7359;SDS011;3720;48.274;7.796;2022-09-28T10:24:47;4.43;;;1.38;;
7359;SDS011;3720;48.274;7.796;2022-09-28T10:27:23;4.75;;;1.60;;
7359;SDS011;3720;48.274;7.796;2022-09-28T10:29:58;3.40;;;1.50;;
7359;SDS011;3720;48.274;7.796;2022-09-28T10:32:37;3.75;;;1.15;;
7359;SDS011;3720;48.274;7.796;2022-09-28T10:35:11;4.57;;;1.40;;
7359;SDS011;3720;48.274;7.796;2022-09-28T10:37:50;3.33;;;1.20;;
7359;SDS011;3720;48.274;7.796;2022-09-28T10:40:26;4.28;;;1.30;;
7359;SDS011;3720;48.274;7.796;2022-09-28T10:43:04;3.75;;;1.10;;
7359;SDS011;3720;48.274;7.796;2022-09-28T10:45:47;6.40;;;1.50;;
7359;SDS011;3720;48.274;7.796;2022-09-28T10:48:21;2.15;;;1.20;;
7359;SDS011;3720;48.274;7.796;2022-09-28T10:50:57;5.47;;;1.50;;
7359;SDS011;3720;48.274;7.796;2022-09-28T10:53:31;3.35;;;1.33;;
7359;SDS011;3720;48.274;7.796;2022-09-28T10:56:06;3.33;;;1.33;;
7359;SDS011;3720;48.274;7.796;2022-09-28T10:58:49;3.85;;;1.33;;
7359;SDS011;3720;48.274;7.796;2022-09-28T11:01:22;5.25;;;1.50;;
7359;SDS011;3720;48.274;7.796;2022-09-28T11:06:34;4.10;;;1.27;;
7359;SDS011;3720;48.274;7.796;2022-09-28T11:09:20;5.38;;;1.60;;
7359;SDS011;3720;48.274;7.796;2022-09-28T11:11:56;4.97;;;1.50;;
7359;SDS011;3720;48.274;7.796;2022-09-28T11:14:31;3.20;;;1.20;;
7359;SDS011;3720;48.274;7.796;2022-09-28T11:19:50;4.13;;;1.25;;
7359;SDS011;3720;48.274;7.796;2022-09-28T11:22:23;5.88;;;1.50;;
7359;SDS011;3720;48.274;7.796;2022-09-28T11:25:12;5.00;;;1.58;;
7359;SDS011;3720;48.274;7.796;2022-09-28T11:27:57;2.97;;;1.40;;
7359;SDS011;3720;48.274;7.796;2022-09-28T11:30:31;8.18;;;1.50;;
7359;SDS011;3720;48.274;7.796;2022-09-28T11:33:10;5.38;;;1.40;;
7359;SDS011;3720;48.274;7.796;2022-09-28T11:35:50;3.95;;;1.38;;
7359;SDS011;3720;48.274;7.796;2022-09-28T11:38:31;5.65;;;1.40;;
7359;SDS011;3720;48.274;7.796;2022-09-28T11:41:16;4.32;;;1.48;;
7359;SDS011;3720;48.274;7.796;2022-09-28T11:44:02;6.00;;;1.50;;
7359;SDS011;3720;48.274;7.796;2022-09-28T11:46:50;7.72;;;1.77;;
7359;SDS011;3720;48.274;7.796;2022-09-28T11:49:35;4.50;;;1.35;;
7359;SDS011;3720;48.274;7.796;2022-09-28T11:52:12;3.33;;;1.42;;
7359;SDS011;3720;48.274;7.796;2022-09-28T11:54:49;5.32;;;1.33;;
7359;SDS011;3720;48.274;7.796;2022-09-28T11:57:26;3.45;;;1.40;;
7359;SDS011;3720;48.274;7.796;2022-09-28T12:00:03;4.45;;;1.38;;
7359;SDS011;3720;48.274;7.796;2022-09-28T12:02:40;5.78;;;1.50;;
7359;SDS011;3720;48.274;7.796;2022-09-28T12:05:19;5.70;;;1.50;;
7359;SDS011;3720;48.274;7.796;2022-09-28T12:07:56;4.05;;;1.40;;
7359;SDS011;3720;48.274;7.796;2022-09-28T12:10:33;4.35;;;1.20;;
7359;SDS011;3720;48.274;7.796;2022-09-28T12:13:10;4.38;;;1.45;;
7359;SDS011;3720;48.274;7.796;2022-09-28T12:15:46;3.88;;;1.48;;
7359;SDS011;3720;48.274;7.796;2022-09-28T12:18:21;3.45;;;1.30;;
7359;SDS011;3720;48.274;7.796;2022-09-28T12:20:58;5.85;;;1.73;;
7359;SDS011;3720;48.274;7.796;2022-09-28T12:23:41;4.35;;;1.50;;
7359;SDS011;3720;48.274;7.796;2022-09-28T12:26:20;3.72;;;1.40;;
7359;SDS011;3720;48.274;7.796;2022-09-28T12:28:57;5.57;;;1.23;;
7359;SDS011;3720;48.274;7.796;2022-09-28T12:31:33;3.13;;;1.30;;
7359;SDS011;3720;48.274;7.796;2022-09-28T12:34:08;2.50;;;1.02;;
7359;SDS011;3720;48.274;7.796;2022-09-28T12:36:45;3.22;;;1.38;;
7359;SDS011;3720;48.274;7.796;2022-09-28T12:39:51;4.05;;;1.67;;
7359;SDS011;3720;48.274;7.796;2022-09-28T12:42:43;5.18;;;1.50;;
7359;SDS011;3720;48.274;7.796;2022-09-28T12:45:29;4.82;;;1.48;;
7359;SDS011;3720;48.274;7.796;2022-09-28T12:48:24;5.25;;;1.20;;
7359;SDS011;3720;48.274;7.796;2022-09-28T12:51:21;3.75;;;1.17;;
7359;SDS011;3720;48.274;7.796;2022-09-28T12:54:13;4.72;;;1.20;;
7359;SDS011;3720;48.274;7.796;2022-09-28T12:57:07;3.50;;;1.10;;
7359;SDS011;3720;48.274;7.796;2022-09-28T13:00:00;3.83;;;1.20;;
7359;SDS011;3720;48.274;7.796;2022-09-28T13:05:56;4.18;;;1.20;;
7359;SDS011;3720;48.274;7.796;2022-09-28T13:08:42;4.60;;;1.20;;
7359;SDS011;3720;48.274;7.796;2022-09-28T13:11:21;2.33;;;1.05;;
7359;SDS011;3720;48.274;7.796;2022-09-28T13:14:09;3.58;;;1.10;;
7359;SDS011;3720;48.274;7.796;2022-09-28T13:16:54;4.13;;;1.20;;
7359;SDS011;3720;48.274;7.796;2022-09-28T13:19:32;4.43;;;1.17;;
7359;SDS011;3720;48.274;7.796;2022-09-28T13:22:16;2.38;;;1.00;;
7359;SDS011;3720;48.274;7.796;2022-09-28T13:24:59;2.97;;;1.13;;
7359;SDS011;3720;48.274;7.796;2022-09-28T13:27:36;2.17;;;1.00;;
7359;SDS011;3720;48.274;7.796;2022-09-28T13:30:13;3.22;;;1.08;;
7359;SDS011;3720;48.274;7.796;2022-09-28T13:32:47;4.75;;;1.30;;
7359;SDS011;3720;48.274;7.796;2022-09-28T13:35:19;2.35;;;1.27;;
7359;SDS011;3720;48.274;7.796;2022-09-28T13:41:10;4.53;;;1.65;;
7359;SDS011;3720;48.274;7.796;2022-09-28T13:43:53;4.07;;;1.55;;
7359;SDS011;3720;48.274;7.796;2022-09-28T13:46:48;3.90;;;1.30;;
7359;SDS011;3720;48.274;7.796;2022-09-28T13:49:39;2.60;;;1.17;;
7359;SDS011;3720;48.274;7.796;2022-09-28T13:52:29;2.92;;;1.42;;
7359;SDS011;3720;48.274;7.796;2022-09-28T13:55:22;3.75;;;1.35;;
7359;SDS011;3720;48.274;7.796;2022-09-28T13:57:58;3.03;;;0.95;;
7359;SDS011;3720;48.274;7.796;2022-09-28T14:00:34;2.85;;;1.23;;
7359;SDS011;3720;48.274;7.796;2022-09-28T14:03:23;3.97;;;1.20;;
7359;SDS011;3720;48.274;7.796;2022-09-28T14:06:04;4.07;;;1.08;;
7359;SDS011;3720;48.274;7.796;2022-09-28T14:08:42;1.65;;;1.10;;
7359;SDS011;3720;48.274;7.796;2022-09-28T14:17:40;3.75;;;1.40;;
7359;SDS011;3720;48.274;7.796;2022-09-28T14:20:25;3.42;;;1.48;;
7359;SDS011;3720;48.274;7.796;2022-09-28T14:25:57;2.72;;;1.08;;
7359;SDS011;3720;48.274;7.796;2022-09-28T14:28:46;3.03;;;1.20;;
7359;SDS011;3720;48.274;7.796;2022-09-28T14:31:27;2.88;;;1.10;;
7359;SDS011;3720;48.274;7.796;2022-09-28T14:34:00;3.33;;;1.50;;
7359;SDS011;3720;48.274;7.796;2022-09-28T14:36:39;5.82;;;2.33;;
7359;SDS011;3720;48.274;7.796;2022-09-28T14:39:35;4.38;;;1.75;;
7359;SDS011;3720;48.274;7.796;2022-09-28T14:42:30;3.45;;;1.42;;
7359;SDS011;3720;48.274;7.796;2022-09-28T14:48:12;3.75;;;1.20;;
7359;SDS011;3720;48.274;7.796;2022-09-28T14:50:50;3.03;;;1.20;;
7359;SDS011;3720;48.274;7.796;2022-09-28T14:53:26;2.78;;;1.30;;
7359;SDS011;3720;48.274;7.796;2022-09-28T14:55:58;3.13;;;1.15;;
7359;SDS011;3720;48.274;7.796;2022-09-28T14:58:37;1.67;;;0.90;;
7359;SDS011;3720;48.274;7.796;2022-09-28T15:01:13;2.63;;;1.10;;
7359;SDS011;3720;48.274;7.796;2022-09-28T15:03:50;3.10;;;1.25;;
7359;SDS011;3720;48.274;7.796;2022-09-28T15:06:25;2.25;;;1.10;;
7359;SDS011;3720;48.274;7.796;2022-09-28T15:08:59;3.08;;;1.05;;
7359;SDS011;3720;48.274;7.796;2022-09-28T15:11:31;2.95;;;1.27;;
7359;SDS011;3720;48.274;7.796;2022-09-28T15:14:03;5.53;;;1.60;;
7359;SDS011;3720;48.274;7.796;2022-09-28T15:16:37;3.53;;;1.33;;
7359;SDS011;3720;48.274;7.796;2022-09-28T15:19:11;4.20;;;1.58;;
7359;SDS011;3720;48.274;7.796;2022-09-28T15:21:52;3.78;;;2.13;;
7359;SDS011;3720;48.274;7.796;2022-09-28T15:24:27;5.57;;;1.75;;
7359;SDS011;3720;48.274;7.796;2022-09-28T15:27:02;4.32;;;1.88;;
7359;SDS011;3720;48.274;7.796;2022-09-28T15:29:53;4.75;;;2.05;;
7359;SDS011;3720;48.274;7.796;2022-09-28T15:32:27;4.50;;;1.60;;
7359;SDS011;3720;48.274;7.796;2022-09-28T15:35:08;4.47;;;1.35;;
7359;SDS011;3720;48.274;7.796;2022-09-28T15:37:43;2.05;;;1.25;;
7359;SDS011;3720;48.274;7.796;2022-09-28T15:40:17;3.03;;;1.25;;
7359;SDS011;3720;48.274;7.796;2022-09-28T15:43:01;2.85;;;1.30;;
7359;SDS011;3720;48.274;7.796;2022-09-28T15:45:40;2.30;;;1.05;;
7359;SDS011;3720;48.274;7.796;2022-09-28T15:48:17;2.40;;;1.20;;
7359;SDS011;3720;48.274;7.796;2022-09-28T15:50:56;2.45;;;0.93;;
7359;SDS011;3720;48.274;7.796;2022-09-28T15:53:30;2.22;;;0.98;;
7359;SDS011;3720;48.274;7.796;2022-09-28T15:56:05;2.45;;;0.90;;
7359;SDS011;3720;48.274;7.796;2022-09-28T15:58:39;2.17;;;1.00;;
7359;SDS011;3720;48.274;7.796;2022-09-28T16:01:25;4.15;;;1.00;;
7359;SDS011;3720;48.274;7.796;2022-09-28T16:07:19;3.28;;;1.10;;
7359;SDS011;3720;48.274;7.796;2022-09-28T16:09:54;3.40;;;1.50;;
7359;SDS011;3720;48.274;7.796;2022-09-28T16:12:31;4.00;;;1.17;;
7359;SDS011;3720;48.274;7.796;2022-09-28T16:15:14;3.03;;;1.10;;
7359;SDS011;3720;48.274;7.796;2022-09-28T16:17:51;2.70;;;1.00;;
7359;SDS011;3720;48.274;7.796;2022-09-28T16:20:26;4.10;;;1.20;;
7359;SDS011;3720;48.274;7.796;2022-09-28T16:23:07;5.20;;;1.20;;
7359;SDS011;3720;48.274;7.796;2022-09-28T16:25:46;4.80;;;1.17;;
7359;SDS011;3720;48.274;7.796;2022-09-28T16:31:28;3.50;;;1.02;;
7359;SDS011;3720;48.274;7.796;2022-09-28T16:34:15;1.70;;;0.90;;
7359;SDS011;3720;48.274;7.796;2022-09-28T16:36:49;1.55;;;0.95;;
7359;SDS011;3720;48.274;7.796;2022-09-28T16:39:21;1.55;;;1.00;;
7359;SDS011;3720;48.274;7.796;2022-09-28T16:41:54;2.92;;;1.08;;
7359;SDS011;3720;48.274;7.796;2022-09-28T16:44:33;3.72;;;1.20;;
7359;SDS011;3720;48.274;7.796;2022-09-28T16:47:05;2.92;;;1.17;;